• Join FlightAware (Why Join?)
  • Login
  • US Flag 
01:13AM EDT


 

Airport Tracker/Info


-or-


 

Live Flight TrackerFlight Track Log ✈ TAM3854 ✈ 25-Sep-2013 ✈ SBCF / CNF - SBBR / BSB

Flight Track Log - Related Links

Times and Time Zones

All times are in EDT time to prevent confusion due to time zone crossing. See the TAM3854 flight status page for this flight to view local times or setup timezone preferences in your user account.

Time Position Orientation Groundspeed Altitude Reporting Facility
EDT Latitude Longitude Course Direction KTS MPH feet Rate Location/Type
07:08PM -19.6330 -43.9640 67° East  Level FlightAware
07:10PM -19.6330 -43.9640 180° South 60 Level FlightAware
07:13PM -19.5013 -44.1053 314° West  Level Estimated
07:14PM -19.4456 -44.1654 314° West  Level Estimated
07:15PM -19.3899 -44.2254 315° West  Level Estimated
07:16PM -19.3342 -44.2854 315° West  Level Estimated
07:17PM -19.2785 -44.3454 315° West  Level Estimated
07:18PM -19.2228 -44.4053 315° West  Level Estimated
07:19PM -19.1670 -44.4651 315° West  Level Estimated
07:19PM -19.6330 -43.9640 315° West  Level FlightAware
07:22PM -19.6330 -43.9640 180° South 120 Level FlightAware
07:25PM -19.5125 -44.0943 314° West  Level Estimated
07:26PM -19.4568 -44.1544 314° West  Level Estimated
07:27PM -19.4011 -44.2144 315° West  Level Estimated
07:28PM -19.3454 -44.2744 315° West  Level Estimated
07:29PM -19.2897 -44.3343 315° West  Level Estimated
07:32PM -19.5115 -44.0963 314° West  Level Estimated
07:33PM -19.4558 -44.1563 315° West  Level Estimated
07:34PM -19.4002 -44.2164 315° West  Level Estimated
07:40PM -19.6330 -43.9700 145° Southeast 140 161  Level FlightAware
07:40PM -19.6440 -43.9600 139° Southeast 169 194 2,900 5,520 Climbing FlightAware
07:41PM -19.6550 -43.9500 139° Southeast 166 191 3,700 1,980 Climbing FlightAware
07:41PM -19.6630 -43.9480 167° South 172 198 3,900 1,500 Climbing FlightAware
07:41PM -19.6720 -43.9450 163° South 187 215 4,200 1,320 Climbing FlightAware
07:41PM -19.6940 -43.9390 166° South 223 257 4,700 1,380 Climbing FlightAware
07:41PM -19.6990 -43.9370 159° South 225 259 4,900 2,700 Climbing FlightAware
07:41PM -19.7030 -43.9320 130° Southeast 230 265 5,200 2,820 Climbing FlightAware
07:42PM -19.7080 -43.9220 118° Southeast 233 268 5,700 3,000 Climbing FlightAware
07:42PM -19.7080 -43.9170 90° East 235 270 5,900 3,000 Climbing FlightAware
07:42PM -19.6980 -43.8940 65° Northeast 238 274 7,100 2,700 Climbing FlightAware
07:42PM -19.6900 -43.8900 25° Northeast 237 273 7,300 2,160 Climbing FlightAware
07:42PM -19.6860 -43.8890 13° North 236 272 7,500 2,100 Climbing FlightAware
07:42PM -19.6750 -43.8900 355° North 241 277 7,800 1,920 Climbing FlightAware
07:43PM -19.6580 -43.8960 342° North 260 299 8,300 1,980 Climbing FlightAware
07:43PM -19.6350 -43.9030 344° North 284 327 9,000 2,580 Climbing FlightAware
07:43PM -19.6100 -43.9140 337° Northwest 285 328 10,000 3,000 Climbing FlightAware
07:44PM -19.5960 -43.9300 313° West 283 326 10,700 2,160 Climbing FlightAware
07:44PM -19.5570 -43.9760 312° West 322 371 12,000 2,400 Climbing FlightAware
07:45PM -19.5220 -44.0170 312° West 329 379 13,700 2,700 Climbing FlightAware
07:45PM -19.4870 -44.0600 311° West 341 392 15,200 2,280 Climbing FlightAware
07:46PM -19.4500 -44.1070 310° West 359 413 16,400 2,100 Climbing FlightAware
07:47PM -19.4060 -44.1610 311° West 369 425 17,900 2,760 Climbing FlightAware
07:47PM -19.3620 -44.2160 310° West 355 409 20,100 2,940 Climbing FlightAware
07:48PM -19.3250 -44.2620 310° West 352 405 21,600 2,400 Climbing FlightAware
07:48PM -19.2940 -44.3010 310° West 354 407 22,700 1,620 Climbing FlightAware
07:49PM -19.2510 -44.3550 310° West 369 425 23,500 1,020 Climbing FlightAware
07:50PM -19.2100 -44.4050 311° West 391 450 24,000 960 Climbing FlightAware
07:50PM -19.1800 -44.4420 311° West 400 460 24,500 1,740 Climbing FlightAware
07:51PM -19.1280 -44.4970 315° West 400 460 25,900 2,040 Climbing FlightAware
07:51PM -19.0860 -44.5370 318° Northwest 400 460 26,900 1,560 Climbing FlightAware
07:52PM -19.0380 -44.5820 318° Northwest 409 471 27,600 1,260 Climbing FlightAware
07:52PM -18.9870 -44.6300 318° Northwest 417 480 28,400 1,320 Climbing FlightAware
07:53PM -18.9360 -44.6790 318° Northwest 424 488 29,200 1,260 Climbing FlightAware
07:54PM -18.8860 -44.7260 318° Northwest 432 497 29,900 1,320 Climbing FlightAware
07:54PM -18.8330 -44.7760 318° Northwest 435 501 30,800 1,440 Climbing FlightAware
07:55PM -18.7790 -44.8260 319° Northwest 439 505 31,600 1,260 Climbing FlightAware
07:55PM -18.7270 -44.8760 318° Northwest 441 507 32,300 1,560 Climbing FlightAware
07:56PM -18.6660 -44.9330 318° Northwest 434 499 33,600 1,800 Climbing FlightAware
07:57PM -18.6210 -44.9750 319° Northwest 429 494 34,400 2,100 Climbing FlightAware
07:57PM -18.5700 -45.0230 318° Northwest 412 474 35,900 1,980 Climbing FlightAware
07:58PM -18.5200 -45.0700 318° Northwest 410 472 36,800 1,500 Climbing FlightAware
07:58PM -18.4650 -45.1220 318° Northwest 401 461 37,800 1,020 Climbing FlightAware
07:59PM -18.4230 -45.1610 319° Northwest 405 466 38,000 180 Climbing FlightAware
07:59PM -18.3780 -45.2030 318° Northwest 420 483 38,000 -960 Level FlightAware
08:02PM -18.2792 -45.3116 314° West  Level Estimated
08:03PM -18.2314 -45.3641 314° West  Level Estimated
08:04PM -18.1835 -45.4166 314° West  Level Estimated
08:05PM -18.1357 -45.4691 314° West  Level Estimated
08:06PM -18.0878 -45.5215 314° West  Level Estimated
08:07PM -18.0399 -45.5739 314° West  Level Estimated
08:08PM -17.9920 -45.6263 314° West  Level Estimated
08:09PM -17.9441 -45.6786 314° West  Level Estimated
08:10PM -17.8962 -45.7309 314° West  Level Estimated
08:11PM -17.8482 -45.7832 314° West  Level Estimated
08:12PM -17.8003 -45.8354 314° West  Level Estimated
08:13PM -17.7523 -45.8877 314° West  Level Estimated
08:14PM -17.7043 -45.9399 314° West  Level Estimated
08:15PM -17.6563 -45.9920 314° West  Level Estimated
08:16PM -17.6083 -46.0442 314° West  Level Estimated
08:17PM -17.5603 -46.0963 314° West  Level Estimated
08:18PM -17.5123 -46.1484 314° West  Level Estimated
08:19PM -17.4642 -46.2004 314° West  Level Estimated
08:20PM -17.4162 -46.2525 314° West  Level Estimated
08:21PM -17.3681 -46.3045 314° West  Level Estimated
08:22PM -17.3200 -46.3564 314° West  Level Estimated
08:23PM -17.2719 -46.4084 314° West  Level Estimated
08:24PM -17.2238 -46.4603 314° West  Level Estimated
08:25PM -17.1756 -46.5122 314° West  Level Estimated
08:25PM -16.3510 -47.2800 314° West 328 377 14,100  Level FlightAware
08:26PM -16.2930 -47.3370 317° Northwest 323 372 13,300 -1,860 Descending FlightAware
08:26PM -16.2520 -47.3790 315° West 311 358 11,600 -1,620 Descending FlightAware
08:27PM -16.2170 -47.4130 317° Northwest 309 356 11,400 -960 Descending FlightAware
08:28PM -16.1690 -47.4600 317° Northwest 302 348 10,300 -1,620 Descending FlightAware
08:28PM -16.1500 -47.4800 315° West 282 325 9,700 -1,560 Descending FlightAware
08:28PM -16.1330 -47.4980 315° West 286 329 9,300 -540 Descending FlightAware
08:29PM -16.1130 -47.5180 316° Northwest 286 329 9,300 -660 Level FlightAware
08:29PM -16.0720 -47.5590 316° Northwest 292 336 8,700 -900 Descending FlightAware
08:30PM -16.0470 -47.5850 315° West 292 336 8,400 -1,080 Descending FlightAware
08:30PM -16.0300 -47.6060 310° West 293 337 7,900 -1,380 Descending FlightAware
08:31PM -16.0100 -47.6320 309° West 289 333 7,400 -1,200 Descending FlightAware
08:31PM -15.9870 -47.6600 311° West 287 330 6,900 -840 Descending FlightAware
08:31PM -15.9700 -47.6820 309° West 289 333 6,800 -360 Descending FlightAware
08:32PM -15.9550 -47.6970 316° Northwest 283 326 6,700 -720 Descending FlightAware
08:32PM -15.9440 -47.7020 336° Northwest 280 322 6,500 -1,200 Descending FlightAware
08:32PM -15.9380 -47.7030 351° North 276 318 6,400 -480 Descending FlightAware
08:32PM -15.9140 -47.7070 351° North 254 292 6,300 -780 Descending FlightAware
08:33PM -15.8900 -47.7100 353° North 249 287 5,900 -1,200 Descending FlightAware
08:33PM -15.8810 -47.7170 323° Northwest 246 283 5,700 -900 Descending FlightAware
08:33PM -15.8750 -47.7270 302° West 237 273 5,600 -840 Descending FlightAware
08:33PM -15.8740 -47.7310 285° West 233 268 5,500 -600 Descending FlightAware
08:33PM -15.8700 -47.7480 284° West 222 255 5,400 -240 Descending FlightAware
08:34PM -15.8700 -47.7830 270° West 191 220 5,300 -240 Descending FlightAware
08:34PM -15.8720 -47.8000 263° West 167 192 5,200 -660 Descending FlightAware
08:34PM -15.8730 -47.8150 266° West 157 181 4,900 -840 Descending FlightAware
08:35PM -15.8740 -47.8330 267° West 148 170 4,600 -720 Descending FlightAware
08:35PM -15.8750 -47.8470 266° West 144 166 4,400 -600 Descending FlightAware
08:36PM -15.8750 -47.8610 270° West 142 163 4,200 -780 Descending FlightAware
08:36PM -15.8760 -47.8730 265° West 140 161 3,900 -720 Descending FlightAware
08:36PM -15.8770 -47.8830 264° West 138 159 3,800 -720 Descending FlightAware
08:36PM -15.8780 -47.8990 266° West 142 163 3,500 -420 Descending FlightAware
08:37PM -15.8790 -47.9220 267° West 144 166 3,400 -180 Descending FlightAware